createdAt,value
2018-03-14T08:38:49.047Z,47.04
2018-03-14T08:39:38.120Z,47.14
2018-03-14T08:40:27.172Z,45.84
2018-03-14T08:41:16.233Z,45.55
2018-03-14T08:42:05.287Z,45.33
2018-03-14T08:42:54.330Z,45.09
2018-03-14T08:43:43.371Z,45.26
2018-03-14T08:44:32.455Z,46.31
2018-03-14T08:45:21.541Z,46.61
2018-03-14T08:46:10.660Z,47.18
2018-03-14T08:46:59.721Z,46.34
2018-03-14T08:47:48.758Z,46.92
2018-03-14T08:48:38.119Z,46.09
2018-03-14T08:49:27.197Z,46.13
2018-03-14T08:50:16.335Z,45.40
2018-03-14T08:51:05.404Z,46.15
2018-03-14T08:51:54.442Z,46.75
2018-03-14T08:52:43.476Z,46.38
2018-03-14T08:53:32.529Z,47.24
2018-03-14T08:54:21.595Z,46.25
2018-03-14T08:55:10.698Z,46.20
2018-03-14T08:55:59.818Z,45.16
2018-03-14T08:56:48.854Z,44.64
2018-03-14T08:57:37.892Z,45.18
2018-03-14T08:58:27.222Z,44.85
2018-03-14T08:59:16.262Z,44.08
2018-03-14T09:00:05.317Z,44.63
2018-03-14T09:00:54.366Z,43.94
2018-03-14T09:01:43.406Z,43.56
2018-03-14T09:02:32.451Z,42.92
2018-03-14T09:03:21.496Z,43.98
2018-03-14T09:04:10.602Z,44.33
2018-03-14T09:04:59.655Z,44.10
2018-03-14T09:05:48.697Z,41.96
2018-03-14T09:06:37.748Z,42.96
2018-03-14T09:07:26.845Z,44.75
2018-03-14T09:08:15.893Z,45.76
2018-03-14T09:09:05.048Z,45.44
2018-03-14T09:09:54.109Z,45.70
2018-03-14T09:10:43.155Z,44.45
2018-03-14T09:11:32.204Z,43.32
2018-03-14T09:12:21.239Z,42.89
2018-03-14T09:13:10.269Z,42.27
2018-03-14T09:13:59.414Z,42.38
2018-03-14T09:14:48.456Z,43.11
2018-03-14T09:15:37.636Z,42.86
2018-03-14T09:16:26.674Z,42.04
2018-03-14T09:17:15.709Z,41.91
2018-03-14T09:18:05.081Z,42.10
2018-03-14T09:18:54.148Z,42.26
2018-03-14T09:19:43.188Z,42.77
2018-03-14T09:20:32.224Z,42.82
2018-03-14T09:21:21.271Z,42.79
2018-03-14T09:22:10.491Z,41.25
2018-03-14T09:22:59.532Z,42.30
2018-03-14T09:23:48.631Z,41.59
2018-03-14T09:24:37.685Z,42.19
2018-03-14T09:25:26.719Z,42.75
2018-03-14T09:26:15.775Z,43.23
2018-03-14T09:27:04.811Z,43.86
2018-03-14T09:27:53.881Z,44.34
2018-03-14T09:28:42.901Z,45.18
2018-03-14T09:29:31.923Z,44.73
2018-03-14T09:30:20.957Z,45.36
2018-03-14T09:31:10.160Z,44.82
2018-03-14T09:31:59.190Z,43.44
2018-03-14T09:32:48.223Z,42.14
2018-03-14T09:33:37.329Z,42.89
2018-03-14T09:34:26.427Z,42.88
2018-03-14T09:35:15.483Z,42.64
2018-03-14T09:36:04.531Z,42.82
2018-03-14T09:36:53.584Z,42.69
2018-03-14T09:37:42.627Z,42.68
2018-03-14T09:38:31.718Z,43.13
2018-03-14T09:39:20.778Z,40.79
2018-03-14T09:40:09.824Z,40.85
2018-03-14T09:40:58.963Z,40.86
2018-03-14T09:41:48.007Z,40.60
2018-03-14T09:42:37.041Z,40.73
2018-03-14T09:43:26.079Z,40.51
2018-03-14T09:44:15.116Z,41.11
2018-03-14T09:45:04.189Z,40.86
2018-03-14T09:45:53.227Z,42.10
2018-03-14T09:46:42.320Z,42.12
2018-03-14T09:47:31.424Z,41.02
2018-03-14T09:48:20.460Z,41.75
2018-03-14T09:49:09.495Z,41.30
2018-03-14T09:49:58.530Z,41.24
2018-03-14T09:50:47.571Z,41.58
2018-03-14T09:51:36.608Z,40.84
2018-03-14T09:52:25.657Z,41.25
2018-03-14T09:53:14.728Z,41.18
2018-03-14T09:54:03.772Z,40.46
2018-03-14T09:54:52.806Z,40.74
2018-03-14T09:55:41.841Z,41.13
2018-03-14T09:56:30.891Z,40.50
2018-03-14T09:57:19.950Z,40.98
2018-03-14T09:58:08.988Z,40.82
2018-03-14T09:58:58.128Z,39.38
2018-03-14T09:59:47.164Z,39.37
2018-03-14T10:00:36.200Z,38.34
2018-03-14T10:01:25.246Z,39.05
2018-03-14T10:02:14.373Z,39.62
2018-03-14T10:03:03.439Z,40.43
2018-03-14T10:03:52.494Z,41.48
2018-03-14T10:04:41.553Z,40.75
2018-03-14T10:05:30.584Z,40.23
2018-03-14T10:06:19.626Z,40.27
2018-03-14T10:07:08.664Z,40.79
2018-03-14T10:07:57.853Z,40.57
2018-03-14T10:08:46.890Z,40.46
2018-03-14T10:09:35.989Z,40.52
2018-03-14T10:10:25.027Z,40.30
2018-03-14T10:11:14.079Z,38.89
2018-03-14T10:12:03.130Z,37.56
2018-03-14T10:12:52.192Z,39.46
2018-03-14T10:13:41.228Z,39.70
2018-03-14T10:14:30.267Z,39.37
2018-03-14T10:15:19.413Z,39.17
2018-03-14T10:16:08.493Z,39.57
2018-03-14T10:16:57.538Z,39.03
2018-03-14T10:17:46.577Z,39.62
2018-03-14T10:18:35.630Z,40.29
2018-03-14T10:19:24.775Z,39.57
2018-03-14T10:20:13.821Z,40.54
2018-03-14T10:21:02.875Z,40.85
2018-03-14T10:21:51.928Z,38.18
2018-03-14T10:22:41.006Z,39.36
2018-03-14T10:23:30.062Z,38.51
2018-03-14T10:24:19.106Z,38.63
2018-03-14T10:25:08.177Z,38.27
2018-03-14T10:25:57.246Z,39.39
2018-03-14T10:26:46.294Z,39.39
2018-03-14T10:27:35.343Z,39.07
2018-03-14T10:28:24.378Z,39.30
2018-03-14T10:29:13.759Z,37.67
2018-03-14T10:30:02.802Z,37.52
2018-03-14T10:30:51.870Z,37.91
2018-03-14T10:31:40.905Z,39.03
2018-03-14T10:32:29.950Z,38.58
2018-03-14T10:33:18.996Z,39.84
2018-03-14T10:34:08.115Z,38.21
2018-03-14T10:34:57.153Z,35.50
2018-03-14T10:35:46.182Z,37.21
2018-03-14T10:36:35.327Z,38.15
2018-03-14T10:37:24.364Z,38.05
2018-03-14T10:38:13.420Z,38.09
2018-03-14T10:39:02.481Z,38.91
2018-03-14T10:39:51.541Z,36.96
2018-03-14T10:40:40.584Z,37.70
2018-03-14T10:41:29.609Z,37.53
2018-03-14T10:42:18.896Z,38.76
2018-03-14T10:43:07.932Z,38.40
2018-03-14T10:43:56.981Z,38.68
2018-03-14T10:44:46.041Z,36.63
2018-03-14T10:45:35.077Z,36.07
2018-03-14T10:46:24.112Z,37.49
2018-03-14T10:47:13.156Z,37.96
2018-03-14T10:48:02.230Z,38.98
2018-03-14T10:48:51.277Z,38.33
2018-03-14T10:49:40.303Z,39.07
2018-03-14T10:50:29.378Z,39.57
2018-03-14T10:51:18.414Z,39.72
2018-03-14T10:52:07.447Z,38.39
2018-03-14T10:52:56.488Z,38.56
2018-03-14T10:53:45.640Z,37.72
2018-03-14T10:54:34.678Z,37.63
2018-03-14T10:55:23.725Z,36.93
2018-03-14T10:56:12.773Z,36.09
2018-03-14T10:57:01.810Z,36.45
2018-03-14T10:57:50.989Z,37.29
2018-03-14T10:58:40.033Z,37.38
2018-03-14T10:59:29.076Z,37.31
2018-03-14T11:00:23.517Z,37.31
2018-03-14T11:01:12.593Z,37.01
2018-03-14T11:02:07.004Z,36.75
2018-03-14T11:03:01.474Z,37.20
2018-03-14T11:03:50.528Z,37.98
2018-03-14T11:04:39.586Z,37.61
2018-03-14T11:05:28.634Z,38.00
2018-03-14T11:06:17.685Z,37.47
2018-03-14T11:07:06.725Z,37.63
2018-03-14T11:07:58.360Z,37.81
2018-03-14T11:08:47.412Z,37.79
2018-03-14T11:09:36.574Z,36.71
2018-03-14T11:10:25.776Z,35.29
2018-03-14T11:11:14.817Z,35.51
2018-03-14T11:12:03.889Z,36.07
2018-03-14T11:12:53.199Z,37.01
2018-03-14T11:13:42.262Z,36.85
2018-03-14T11:14:31.322Z,36.62
2018-03-14T11:15:20.380Z,36.33
2018-03-14T11:16:09.480Z,36.44
2018-03-14T11:16:58.515Z,37.91
2018-03-14T11:17:47.572Z,39.06
2018-03-14T11:18:36.619Z,38.92
2018-03-14T11:19:25.678Z,38.36
2018-03-14T11:20:14.822Z,37.36
2018-03-14T11:21:03.882Z,37.30
2018-03-14T11:21:52.934Z,38.41
2018-03-14T11:22:41.984Z,38.85
2018-03-14T11:23:31.036Z,38.62
2018-03-14T11:24:20.070Z,37.66
2018-03-14T11:25:09.171Z,37.43
2018-03-14T11:25:58.329Z,36.58
2018-03-14T11:26:47.366Z,37.20
2018-03-14T11:27:36.428Z,36.90
2018-03-14T11:28:25.474Z,37.12
2018-03-14T11:29:14.521Z,37.65
2018-03-14T11:30:03.819Z,37.87
2018-03-14T11:30:52.863Z,37.09
2018-03-14T11:31:41.911Z,37.76
2018-03-14T11:32:31.166Z,37.42
2018-03-14T11:33:20.202Z,38.09
2018-03-14T11:34:09.247Z,38.95
2018-03-14T11:34:58.301Z,39.46
2018-03-14T11:35:47.525Z,39.23
2018-03-14T11:36:36.568Z,38.33
2018-03-14T11:37:25.614Z,38.66
2018-03-14T11:38:14.673Z,38.97
2018-03-14T11:39:03.770Z,38.90
2018-03-14T11:39:52.816Z,38.38
2018-03-14T11:40:41.859Z,39.09
2018-03-14T11:41:30.977Z,40.49
2018-03-14T11:42:20.068Z,41.61
2018-03-14T11:43:09.108Z,41.84
2018-03-14T11:43:58.180Z,42.55
2018-03-14T11:44:47.220Z,42.96
2018-03-14T11:45:36.269Z,43.01
2018-03-14T11:46:25.325Z,42.75
2018-03-14T11:47:14.838Z,43.50
2018-03-14T11:48:03.921Z,43.97
2018-03-14T11:48:52.982Z,44.77
2018-03-14T11:49:42.062Z,44.52
2018-03-14T11:50:31.098Z,44.82
2018-03-14T11:51:20.145Z,44.74
2018-03-14T11:52:09.209Z,44.66
2018-03-14T11:52:58.256Z,45.50
2018-03-14T11:53:47.315Z,46.16
2018-03-14T11:54:36.362Z,45.90
2018-03-14T11:55:25.453Z,45.40
2018-03-14T11:56:14.489Z,45.93
2018-03-14T11:57:03.535Z,45.13
2018-03-14T11:57:52.600Z,44.55
2018-03-14T11:58:41.636Z,44.71
2018-03-14T11:59:30.725Z,44.92
2018-03-14T12:00:19.797Z,44.74
2018-03-14T12:01:08.846Z,44.72
2018-03-14T12:01:57.886Z,44.72
2018-03-14T12:02:47.024Z,45.46
2018-03-14T12:03:36.095Z,44.74
2018-03-14T12:04:25.140Z,44.57
2018-03-14T12:05:14.187Z,44.49
2018-03-14T12:06:03.240Z,44.16
2018-03-14T12:06:52.287Z,45.09
2018-03-14T12:07:41.331Z,45.22
2018-03-14T12:08:30.663Z,44.59
2018-03-14T12:09:19.724Z,44.19
2018-03-14T12:10:08.791Z,44.01
2018-03-14T12:10:57.989Z,43.85
2018-03-14T12:11:47.035Z,43.34
2018-03-14T12:12:36.067Z,44.14
2018-03-14T12:13:25.121Z,44.47
2018-03-14T12:14:14.192Z,44.23
2018-03-14T12:15:03.231Z,44.72
2018-03-14T12:15:52.274Z,45.08
2018-03-14T12:16:41.356Z,45.82
2018-03-14T12:17:30.403Z,46.38
2018-03-14T12:18:19.466Z,45.41
2018-03-14T12:19:08.521Z,45.80
2018-03-14T12:19:57.565Z,46.60
2018-03-14T12:20:46.604Z,46.50
2018-03-14T12:21:35.652Z,46.24
2018-03-14T12:22:30.334Z,46.29
2018-03-14T12:23:19.399Z,45.64
2018-03-14T12:24:08.488Z,45.33
2018-03-14T12:24:57.535Z,45.62
2018-03-14T12:25:46.580Z,45.38
2018-03-14T12:26:35.738Z,44.98
2018-03-14T12:27:24.828Z,45.20
2018-03-14T12:28:13.876Z,44.77
2018-03-14T12:29:02.932Z,44.43
2018-03-14T12:29:51.985Z,43.82
2018-03-14T12:30:41.025Z,43.81
2018-03-14T12:31:30.075Z,44.24
2018-03-14T12:32:19.175Z,44.61
2018-03-14T12:33:08.237Z,44.50
2018-03-14T12:33:57.297Z,43.50
2018-03-14T12:34:46.360Z,44.28
2018-03-14T12:35:35.409Z,43.87
2018-03-14T12:36:24.457Z,43.08
2018-03-14T12:37:13.498Z,43.43
2018-03-14T12:38:02.660Z,43.22
2018-03-14T12:38:51.703Z,42.28
2018-03-14T12:39:40.736Z,42.54
2018-03-14T12:40:29.849Z,42.43
2018-03-14T12:41:18.889Z,41.40
2018-03-14T12:42:07.990Z,41.61
2018-03-14T12:42:57.053Z,42.55
2018-03-14T12:43:46.128Z,43.06
2018-03-14T12:44:35.161Z,43.24
2018-03-14T12:45:24.203Z,41.52
2018-03-14T12:46:13.289Z,42.55
2018-03-14T12:47:02.328Z,42.96
2018-03-14T12:47:51.438Z,42.95
2018-03-14T12:48:40.471Z,42.78
2018-03-14T12:49:29.508Z,42.83
2018-03-14T12:50:18.554Z,43.25
2018-03-14T12:51:07.595Z,43.97
2018-03-14T12:51:56.636Z,45.17
2018-03-14T12:52:45.672Z,45.98
2018-03-14T12:53:34.821Z,45.73
2018-03-14T12:54:23.865Z,45.76
2018-03-14T12:55:12.910Z,45.99
2018-03-14T12:56:01.951Z,46.16
2018-03-14T12:56:50.988Z,46.36
2018-03-14T12:57:40.031Z,45.30
2018-03-14T12:58:29.073Z,45.21
2018-03-14T12:59:18.220Z,44.72
2018-03-14T13:00:07.308Z,45.78
2018-03-14T13:00:56.348Z,47.28
2018-03-14T13:01:45.383Z,47.67
2018-03-14T13:02:34.427Z,48.18
2018-03-14T13:03:23.548Z,49.13
2018-03-14T13:04:12.608Z,49.56
2018-03-14T13:05:01.643Z,50.70
2018-03-14T13:05:50.682Z,51.10
2018-03-14T13:06:39.763Z,51.21
2018-03-14T13:07:28.808Z,50.87
2018-03-14T13:08:17.854Z,51.31
2018-03-14T13:09:06.983Z,51.05
2018-03-14T13:09:56.264Z,51.33
2018-03-14T13:10:45.291Z,51.80
2018-03-14T13:11:34.348Z,51.99
2018-03-14T13:12:27.028Z,50.89
2018-03-14T13:13:16.073Z,49.31
2018-03-14T13:14:05.117Z,49.06
2018-03-14T13:14:54.288Z,48.94
2018-03-14T13:15:43.328Z,49.81
2018-03-14T13:16:32.366Z,50.00
2018-03-14T13:17:21.403Z,50.38
2018-03-14T13:18:10.486Z,50.54
2018-03-14T13:18:59.502Z,50.32
2018-03-14T13:19:48.540Z,49.89
2018-03-14T13:20:37.629Z,50.27
2018-03-14T13:21:26.690Z,49.69
2018-03-14T13:22:15.762Z,49.08
2018-03-14T13:23:04.805Z,48.59
2018-03-14T13:23:53.852Z,48.22
2018-03-14T13:24:42.898Z,48.35
2018-03-14T13:25:31.963Z,48.56
2018-03-14T13:26:21.086Z,49.36
2018-03-14T13:27:10.139Z,49.71
2018-03-14T13:27:59.175Z,49.64
2018-03-14T13:28:48.209Z,49.62
2018-03-14T13:29:37.261Z,49.86
2018-03-14T13:30:26.310Z,49.52
2018-03-14T13:31:15.360Z,48.59
2018-03-14T13:32:04.534Z,49.10
2018-03-14T13:32:53.627Z,49.51
2018-03-14T13:33:42.638Z,50.09
2018-03-14T13:34:31.688Z,49.98
2018-03-14T13:35:20.750Z,49.85
2018-03-14T13:36:09.802Z,49.56
2018-03-14T13:36:58.931Z,49.94
2018-03-14T13:37:47.984Z,49.20
2018-03-14T13:38:37.022Z,49.36
2018-03-14T13:39:26.083Z,48.78
2018-03-14T13:40:15.142Z,49.50
2018-03-14T13:41:04.198Z,49.48
2018-03-14T13:41:53.260Z,48.85
2018-03-14T13:42:42.370Z,48.89
2018-03-14T13:43:31.422Z,48.57
2018-03-14T13:44:20.541Z,48.23
2018-03-14T13:45:09.592Z,47.25
2018-03-14T13:45:58.651Z,46.13
2018-03-14T13:46:47.696Z,45.98
2018-03-14T13:47:36.860Z,45.91
2018-03-14T13:48:25.929Z,46.37
2018-03-14T13:49:14.988Z,46.83
2018-03-14T13:50:04.068Z,46.64
2018-03-14T13:50:53.129Z,45.34
2018-03-14T13:51:42.215Z,45.37
2018-03-14T13:52:31.263Z,44.42
2018-03-14T13:53:20.400Z,45.17
2018-03-14T13:54:09.480Z,44.06
2018-03-14T13:54:58.534Z,44.96
2018-03-14T13:55:47.590Z,44.55
2018-03-14T13:56:36.776Z,44.63
2018-03-14T13:57:25.828Z,44.01
2018-03-14T13:58:14.874Z,43.98
2018-03-14T13:59:03.934Z,43.87
2018-03-14T13:59:52.984Z,42.65
2018-03-14T14:00:42.056Z,42.50
2018-03-14T14:01:31.112Z,41.90
2018-03-14T14:02:20.211Z,42.35
2018-03-14T14:03:09.288Z,41.73
2018-03-14T14:03:58.343Z,41.95
2018-03-14T14:04:47.393Z,41.78
2018-03-14T14:05:36.464Z,41.32
2018-03-14T14:06:25.533Z,40.74
2018-03-14T14:07:14.596Z,42.99
2018-03-14T14:08:03.704Z,43.86
2018-03-14T14:08:52.752Z,43.20
2018-03-14T14:09:41.811Z,42.81
2018-03-14T14:10:30.883Z,43.41
2018-03-14T14:11:19.935Z,43.50
2018-03-14T14:12:09.011Z,43.59
2018-03-14T14:12:58.066Z,43.46
2018-03-14T14:13:47.640Z,43.65
2018-03-14T14:14:36.726Z,43.63
2018-03-14T14:15:25.787Z,44.06
2018-03-14T14:16:14.857Z,43.59
2018-03-14T14:17:03.924Z,42.85
2018-03-14T14:17:52.968Z,42.24
2018-03-14T14:18:42.023Z,41.86
2018-03-14T14:19:31.113Z,41.67
2018-03-14T14:20:20.812Z,40.51
2018-03-14T14:21:09.864Z,40.47
2018-03-14T14:21:58.949Z,40.31
2018-03-14T14:22:48.005Z,39.34
2018-03-14T14:23:37.071Z,39.91
2018-03-14T14:24:26.138Z,38.53
2018-03-14T14:25:15.229Z,38.58
2018-03-14T14:26:04.331Z,36.86
2018-03-14T14:26:53.405Z,36.55
2018-03-14T14:27:42.456Z,36.78
2018-03-14T14:28:31.511Z,36.66
2018-03-14T14:29:20.570Z,36.22
2018-03-14T14:30:09.626Z,36.35
2018-03-14T14:30:58.804Z,35.51
2018-03-14T14:31:47.881Z,34.80
2018-03-14T14:32:36.955Z,35.17
2018-03-14T14:33:26.041Z,36.51
2018-03-14T14:34:15.087Z,35.43
2018-03-14T14:35:04.173Z,35.48
2018-03-14T14:35:53.233Z,34.91
2018-03-14T14:36:42.396Z,34.93
2018-03-14T14:37:31.439Z,35.11
2018-03-14T14:38:20.524Z,34.83
2018-03-14T14:39:09.632Z,34.79
2018-03-14T14:39:58.687Z,34.87
2018-03-14T14:40:47.749Z,34.47
2018-03-14T14:41:36.883Z,33.44
2018-03-14T14:42:26.009Z,33.16
2018-03-14T14:43:15.058Z,32.91
2018-03-14T14:44:04.330Z,33.57
2018-03-14T14:44:53.372Z,33.81
2018-03-14T14:45:42.429Z,33.78
2018-03-14T14:46:31.496Z,34.98
2018-03-14T14:47:20.552Z,34.55
2018-03-14T14:48:09.595Z,34.58
2018-03-14T14:48:58.653Z,35.05
2018-03-14T14:49:47.756Z,35.54
2018-03-14T14:50:36.971Z,36.62
2018-03-14T14:51:26.024Z,37.22
2018-03-14T14:52:15.121Z,37.76
2018-03-14T14:53:04.217Z,38.47
2018-03-14T14:53:53.265Z,39.30
2018-03-14T14:54:42.321Z,39.96
2018-03-14T14:55:31.476Z,40.60
2018-03-14T14:56:20.521Z,41.08
2018-03-14T14:57:10.241Z,41.80
2018-03-14T14:57:59.296Z,42.40
2018-03-14T14:58:48.339Z,42.50
2018-03-14T14:59:37.398Z,42.72
2018-03-14T15:00:26.479Z,42.66
2018-03-14T15:01:15.544Z,43.13
2018-03-14T15:02:04.627Z,43.68
2018-03-14T15:02:53.716Z,44.09
2018-03-14T15:03:42.784Z,44.47
2018-03-14T15:04:31.890Z,44.84
2018-03-14T15:05:20.976Z,44.94
2018-03-14T15:06:10.089Z,45.35
2018-03-14T15:06:59.146Z,44.80
2018-03-14T15:07:48.193Z,45.02
2018-03-14T15:08:37.313Z,45.12
2018-03-14T15:09:26.359Z,45.78
2018-03-14T15:10:15.411Z,45.71
2018-03-14T15:11:04.462Z,45.75
2018-03-14T15:11:53.530Z,46.02
2018-03-14T15:12:42.710Z,45.96
2018-03-14T15:13:31.774Z,45.92
2018-03-14T15:14:20.836Z,46.39
2018-03-14T15:15:09.905Z,46.41
2018-03-14T15:15:58.953Z,46.06
2018-03-14T15:16:48.020Z,46.05
2018-03-14T15:17:37.207Z,46.39
2018-03-14T15:18:26.267Z,46.25
2018-03-14T15:19:15.321Z,46.72
2018-03-14T15:20:04.409Z,47.09
2018-03-14T15:20:53.482Z,47.47
2018-03-14T15:21:42.565Z,47.44
2018-03-14T15:22:31.607Z,47.32
2018-03-14T15:23:20.694Z,47.07
2018-03-14T15:24:09.753Z,47.46
2018-03-14T15:24:58.830Z,47.46
2018-03-14T15:25:47.888Z,46.87
2018-03-14T15:26:36.949Z,47.17
2018-03-14T15:27:26.007Z,47.12
2018-03-14T15:28:15.048Z,47.44
2018-03-14T15:29:04.206Z,47.53
2018-03-14T15:29:53.308Z,47.31
2018-03-14T15:30:42.395Z,47.46
2018-03-14T15:31:31.476Z,48.01
2018-03-14T15:32:20.807Z,47.69
2018-03-14T15:33:10.238Z,47.87
2018-03-14T15:33:59.305Z,47.67
2018-03-14T15:34:48.364Z,47.29
2018-03-14T15:35:37.426Z,47.70
2018-03-14T15:36:26.539Z,47.82
2018-03-14T15:37:15.600Z,47.50
2018-03-14T15:38:04.693Z,47.55
2018-03-14T15:38:53.813Z,47.39
2018-03-14T15:39:42.897Z,47.82
2018-03-14T15:40:31.958Z,48.04
2018-03-14T15:41:21.013Z,48.34
2018-03-14T15:42:10.101Z,48.59
2018-03-14T15:42:59.159Z,48.43
2018-03-14T15:43:48.216Z,48.55
2018-03-14T15:44:37.395Z,47.93
2018-03-14T15:45:26.646Z,48.59
2018-03-14T15:46:15.710Z,48.36
2018-03-14T15:47:04.788Z,48.52
2018-03-14T15:47:53.846Z,49.24
2018-03-14T15:48:42.952Z,49.11
2018-03-14T15:49:31.995Z,49.51
2018-03-14T15:50:24.322Z,49.74
2018-03-14T15:51:13.384Z,50.22
2018-03-14T15:52:02.437Z,50.66
2018-03-14T15:52:51.499Z,50.48
2018-03-14T15:53:40.636Z,50.59
2018-03-14T15:54:32.160Z,50.80
2018-03-14T15:55:21.245Z,51.03
2018-03-14T15:56:10.345Z,51.03
2018-03-14T15:56:59.428Z,51.15
2018-03-14T15:57:48.483Z,51.47
2018-03-14T15:58:37.545Z,52.00
2018-03-14T15:59:26.597Z,51.79
2018-03-14T16:00:15.659Z,51.53
2018-03-14T16:01:05.295Z,53.35
2018-03-14T16:01:54.424Z,51.27
2018-03-14T16:02:43.485Z,51.38
2018-03-14T16:03:32.538Z,52.06
2018-03-14T16:04:21.591Z,51.82
2018-03-14T16:05:10.704Z,51.88
2018-03-14T16:05:59.753Z,52.07
2018-03-14T16:06:48.830Z,52.24
2018-03-14T16:07:37.892Z,52.75
2018-03-14T16:08:26.964Z,52.39
2018-03-14T16:09:16.013Z,52.45
2018-03-14T16:10:05.169Z,51.44
2018-03-14T16:10:54.219Z,51.29
2018-03-14T16:11:43.270Z,51.98
2018-03-14T16:12:32.341Z,50.89
2018-03-14T16:13:21.389Z,50.45
2018-03-14T16:14:10.457Z,50.99
2018-03-14T16:14:59.540Z,50.67
2018-03-14T16:15:48.692Z,50.63
2018-03-14T16:16:37.759Z,51.21
2018-03-14T16:17:26.939Z,54.20
2018-03-14T16:18:16.029Z,52.05
2018-03-14T16:19:05.078Z,52.77
2018-03-14T16:19:54.130Z,50.91
2018-03-14T16:20:43.196Z,52.80
2018-03-14T16:21:32.261Z,51.45
2018-03-14T16:22:21.306Z,52.07
2018-03-14T16:23:10.381Z,51.76
2018-03-14T16:23:59.493Z,52.28
2018-03-14T16:24:48.572Z,51.94
2018-03-14T16:25:37.625Z,51.49
2018-03-14T16:26:26.676Z,51.61
2018-03-14T16:27:15.736Z,53.58
2018-03-14T16:28:04.838Z,51.32
2018-03-14T16:28:53.892Z,51.46
2018-03-14T16:29:42.937Z,51.30
2018-03-14T16:30:31.984Z,51.30
2018-03-14T16:31:21.035Z,51.51
2018-03-14T16:32:10.096Z,51.54
2018-03-14T16:32:59.134Z,51.58
2018-03-14T16:33:48.277Z,51.68
2018-03-14T16:34:37.330Z,52.47
2018-03-14T16:35:26.385Z,51.72
2018-03-14T16:36:15.450Z,51.60
2018-03-14T16:37:04.515Z,51.45
2018-03-14T16:37:53.560Z,51.20
2018-03-14T16:38:42.614Z,51.99
2018-03-14T16:39:31.700Z,51.07
2018-03-14T16:40:20.760Z,50.96
2018-03-14T16:41:09.808Z,51.33
2018-03-14T16:41:58.883Z,50.52
2018-03-14T16:42:47.921Z,50.49
2018-03-14T16:43:36.980Z,50.97
2018-03-14T16:44:26.050Z,51.62
2018-03-14T16:45:15.272Z,50.44
2018-03-14T16:46:04.336Z,51.60
2018-03-14T16:46:53.389Z,51.98
2018-03-14T16:47:42.434Z,50.43
2018-03-14T16:48:31.485Z,50.29
2018-03-14T16:49:20.533Z,50.30
2018-03-14T16:50:09.601Z,50.25
2018-03-14T16:50:59.130Z,51.07
2018-03-14T16:51:48.169Z,51.15
2018-03-14T16:52:37.213Z,50.91
2018-03-14T16:53:26.246Z,51.34
2018-03-14T16:54:15.313Z,50.59
2018-03-14T16:55:04.376Z,50.63
2018-03-14T16:55:53.431Z,51.21
2018-03-14T16:56:42.728Z,50.70
2018-03-14T16:57:34.428Z,51.47
2018-03-14T16:58:23.469Z,52.01
2018-03-14T16:59:12.554Z,51.30
2018-03-14T17:00:01.638Z,51.32
2018-03-14T17:00:50.718Z,52.08
2018-03-14T17:01:39.788Z,51.04
2018-03-14T17:02:28.832Z,51.26
2018-03-14T17:03:17.889Z,50.65
2018-03-14T17:04:06.972Z,50.96
2018-03-14T17:04:56.016Z,50.78
2018-03-14T17:05:45.096Z,50.80
2018-03-14T17:06:34.157Z,51.88
2018-03-14T17:07:23.213Z,50.57
2018-03-14T17:08:12.302Z,51.58
2018-03-14T17:09:01.352Z,51.67
2018-03-14T17:09:50.421Z,51.49
2018-03-14T17:10:39.476Z,51.77
2018-03-14T17:11:28.579Z,52.71
2018-03-14T17:12:17.957Z,50.90
2018-03-14T17:13:07.052Z,52.37
2018-03-14T17:13:56.157Z,52.53
2018-03-14T17:14:45.205Z,51.45
2018-03-14T17:15:34.287Z,52.57
2018-03-14T17:16:23.356Z,52.99
2018-03-14T17:17:12.573Z,53.19
2018-03-14T17:18:01.637Z,52.03
2018-03-14T17:18:50.704Z,52.31
2018-03-14T17:19:39.777Z,52.61
2018-03-14T17:20:28.833Z,54.82
2018-03-14T17:21:17.890Z,54.62
2018-03-14T17:22:06.973Z,52.88
2018-03-14T17:22:56.116Z,53.91
2018-03-14T17:23:45.202Z,54.51
2018-03-14T17:24:34.257Z,53.94
2018-03-14T17:25:23.319Z,55.39
2018-03-14T17:26:12.449Z,56.13
2018-03-14T17:27:01.498Z,56.42
2018-03-14T17:27:50.577Z,56.89
2018-03-14T17:28:40.134Z,56.80
2018-03-14T17:29:29.217Z,56.96
2018-03-14T17:30:18.286Z,59.21
2018-03-14T17:31:07.371Z,58.13
2018-03-14T17:31:56.510Z,58.60
2018-03-14T17:32:45.559Z,58.66
2018-03-14T17:33:34.632Z,58.09
2018-03-14T17:34:23.684Z,58.63
2018-03-14T17:35:12.734Z,58.73
2018-03-14T17:36:01.807Z,57.58
2018-03-14T17:36:50.853Z,56.29
2018-03-14T17:37:39.905Z,56.19
2018-03-14T17:38:29.023Z,56.59
2018-03-14T17:39:18.176Z,57.30
2018-03-14T17:40:07.233Z,57.14
2018-03-14T17:40:56.326Z,58.00
2018-03-14T17:41:45.380Z,59.00
2018-03-14T17:42:34.463Z,59.75
2018-03-14T17:43:23.587Z,59.87
2018-03-14T17:44:12.636Z,60.47
2018-03-14T17:45:01.698Z,60.82
2018-03-14T17:45:51.005Z,61.36
2018-03-14T17:46:40.039Z,61.04
2018-03-14T17:47:29.084Z,60.69
2018-03-14T17:48:18.142Z,61.27
2018-03-14T17:49:07.201Z,60.90
2018-03-14T17:49:56.266Z,60.69
2018-03-14T17:50:45.307Z,59.85
2018-03-14T17:51:34.488Z,60.15
2018-03-14T17:52:23.570Z,61.02
2018-03-14T17:53:12.631Z,61.27
2018-03-14T17:54:01.682Z,61.50
2018-03-14T17:54:50.742Z,61.45
2018-03-14T17:55:39.802Z,60.93
2018-03-14T17:56:28.886Z,60.78
2018-03-14T17:57:17.980Z,59.95
2018-03-14T17:58:07.033Z,60.53
2018-03-14T17:58:56.086Z,60.63
2018-03-14T17:59:45.138Z,59.67
2018-03-14T18:00:34.199Z,60.57
2018-03-14T18:01:23.263Z,60.60
2018-03-14T18:02:12.314Z,59.64
2018-03-14T18:03:01.732Z,60.09
2018-03-14T18:03:50.784Z,60.37
2018-03-14T18:04:39.827Z,59.40
2018-03-14T18:05:28.969Z,57.64
2018-03-14T18:06:18.052Z,56.89
2018-03-14T18:07:07.131Z,56.78
2018-03-14T18:07:56.190Z,56.38
2018-03-14T18:08:45.331Z,56.73
2018-03-14T18:09:34.400Z,57.12
2018-03-14T18:10:23.466Z,57.49
2018-03-14T18:11:12.574Z,57.34
2018-03-14T18:12:01.636Z,55.85
2018-03-14T18:12:50.683Z,56.45
2018-03-14T18:13:39.741Z,57.57
2018-03-14T18:14:28.818Z,57.47
2018-03-14T18:15:17.865Z,57.41
2018-03-14T18:16:07.069Z,57.58
2018-03-14T18:16:56.146Z,57.82
2018-03-14T18:17:45.207Z,58.19
2018-03-14T18:18:34.283Z,58.56
2018-03-14T18:19:23.343Z,59.42
2018-03-14T18:20:12.392Z,59.83
2018-03-14T18:21:01.437Z,60.35
2018-03-14T18:21:50.757Z,60.94
2018-03-14T18:22:39.797Z,61.13
2018-03-14T18:23:28.891Z,61.17
2018-03-14T18:24:17.948Z,61.73
2018-03-14T18:25:07.001Z,61.32
2018-03-14T18:25:56.131Z,61.39
2018-03-14T18:26:45.180Z,61.26
2018-03-14T18:27:34.282Z,61.60
2018-03-14T18:28:23.368Z,61.91
2018-03-14T18:29:12.437Z,62.21
2018-03-14T18:31:28.140Z,62.77
2018-03-14T18:32:18.958Z,63.35
2018-03-14T18:33:08.125Z,64.39
2018-03-14T18:33:57.298Z,64.42
2018-03-14T18:34:46.443Z,64.46
2018-03-14T18:35:35.493Z,64.43
2018-03-14T18:36:24.897Z,64.71
2018-03-14T18:37:14.076Z,64.94
2018-03-14T18:38:03.233Z,65.09
2018-03-14T18:38:52.312Z,65.93
2018-03-14T18:39:41.732Z,66.22
2018-03-14T18:40:30.778Z,66.64
2018-03-14T18:41:20.046Z,67.22
2018-03-14T18:42:09.260Z,68.03
2018-03-14T18:42:59.414Z,68.32
2018-03-14T18:43:48.461Z,68.42
2018-03-14T18:44:37.532Z,67.95
2018-03-14T18:45:26.585Z,68.02
2018-03-14T18:46:15.639Z,68.24
2018-03-14T18:47:04.731Z,67.93
2018-03-14T18:47:53.802Z,67.55
2018-03-14T18:48:42.903Z,67.92
2018-03-14T18:49:31.965Z,68.25
2018-03-14T18:50:21.029Z,67.61
2018-03-14T18:51:10.073Z,67.39
2018-03-14T18:51:59.119Z,67.08
2018-03-14T18:52:48.158Z,67.87
2018-03-14T18:53:37.214Z,68.10
2018-03-14T18:54:26.323Z,68.54
2018-03-14T18:55:15.786Z,68.60
2018-03-14T18:56:04.895Z,68.56
2018-03-14T18:56:53.949Z,68.86
2018-03-14T18:57:42.996Z,68.46
2018-03-14T18:58:32.320Z,69.18
2018-03-14T18:59:21.582Z,68.49
2018-03-14T19:00:10.654Z,68.29
2018-03-14T19:00:59.815Z,68.52
2018-03-14T19:01:48.874Z,68.57
2018-03-14T19:02:37.943Z,68.70
2018-03-14T19:03:27.004Z,68.81
2018-03-14T19:04:16.075Z,68.45
2018-03-14T19:05:05.220Z,68.44
2018-03-14T19:05:54.417Z,68.48
2018-03-14T19:06:43.492Z,68.30
2018-03-14T19:07:32.569Z,68.54
2018-03-14T19:08:21.671Z,68.43
2018-03-14T19:09:10.762Z,69.20
2018-03-14T19:09:59.853Z,70.31
2018-03-14T19:10:48.960Z,69.23
2018-03-14T19:11:38.014Z,69.11
2018-03-14T19:12:27.088Z,68.05